createdAt,value
2018-01-08T00:01:01.419Z,0.70
2018-01-08T00:03:30.233Z,0.60
2018-01-08T00:05:57.912Z,1.03
2018-01-08T00:08:25.572Z,0.80
2018-01-08T00:10:53.254Z,1.07
2018-01-08T00:13:21.233Z,0.70
2018-01-08T00:15:49.373Z,0.70
2018-01-08T00:18:17.079Z,0.90
2018-01-08T00:20:44.895Z,1.00
2018-01-08T00:23:12.644Z,0.80
2018-01-08T00:25:41.577Z,1.00
2018-01-08T00:28:09.253Z,0.70
2018-01-08T00:30:36.937Z,0.83
2018-01-08T00:33:04.729Z,0.70
2018-01-08T00:35:33.145Z,1.20
2018-01-08T00:38:00.881Z,1.90
2018-01-08T00:40:29.333Z,2.50
2018-01-08T00:42:57.043Z,3.23
2018-01-08T00:45:25.638Z,2.47
2018-01-08T00:47:53.336Z,3.10
2018-01-08T00:50:21.383Z,2.30
2018-01-08T00:52:49.048Z,3.30
2018-01-08T00:55:16.777Z,3.40
2018-01-08T00:57:45.610Z,4.07
2018-01-08T01:00:14.134Z,3.60
2018-01-08T01:02:43.091Z,4.07
2018-01-08T01:05:10.794Z,3.90
2018-01-08T01:07:38.517Z,4.10
2018-01-08T01:10:06.578Z,4.10
2018-01-08T01:12:35.482Z,4.20
2018-01-08T01:15:05.074Z,4.93
2018-01-08T01:17:32.695Z,5.73
2018-01-08T01:20:00.376Z,4.87
2018-01-08T01:22:29.218Z,4.53
2018-01-08T01:24:56.949Z,5.60
2018-01-08T01:27:25.370Z,4.73
2018-01-08T01:29:53.109Z,5.00
2018-01-08T01:32:20.848Z,5.97
2018-01-08T01:34:49.426Z,5.83
2018-01-08T01:37:17.283Z,4.80
2018-01-08T01:39:45.022Z,4.67
2018-01-08T01:42:12.704Z,5.20
2018-01-08T01:44:40.546Z,4.40
2018-01-08T01:47:09.363Z,4.50
2018-01-08T01:49:37.216Z,4.77
2018-01-08T01:52:05.729Z,4.40
2018-01-08T01:54:33.467Z,5.43
2018-01-08T01:57:01.250Z,4.60
2018-01-08T01:59:28.872Z,4.40
2018-01-08T02:01:56.625Z,4.90
2018-01-08T02:04:24.308Z,5.43
2018-01-08T02:06:52.229Z,5.40
2018-01-08T02:09:20.780Z,4.63
2018-01-08T02:11:48.477Z,4.70
2018-01-08T02:14:16.958Z,5.50
2018-01-08T02:16:44.677Z,4.80
2018-01-08T02:19:12.396Z,5.20
2018-01-08T02:21:40.205Z,4.70
2018-01-08T02:24:07.949Z,5.30
2018-01-08T02:26:35.613Z,5.00
2018-01-08T02:29:04.252Z,5.80
2018-01-08T02:31:32.197Z,5.53
2018-01-08T02:34:01.792Z,5.23
2018-01-08T02:36:29.717Z,5.50
2018-01-08T02:38:57.433Z,5.07
2018-01-08T02:41:25.089Z,5.07
2018-01-08T02:43:52.781Z,4.90
2018-01-08T02:46:20.725Z,5.20
2018-01-08T02:48:49.650Z,5.90
2018-01-08T02:51:17.276Z,4.87
2018-01-08T02:53:44.999Z,4.93
2018-01-08T02:56:12.934Z,5.57
2018-01-08T02:58:40.680Z,5.77
2018-01-08T03:01:09.321Z,5.40
2018-01-08T03:03:37.865Z,4.63
2018-01-08T03:06:05.585Z,4.77
2018-01-08T03:08:33.992Z,5.70
2018-01-08T03:11:02.100Z,5.10
2018-01-08T03:13:30.643Z,5.97
2018-01-08T03:15:58.311Z,6.00
2018-01-08T03:18:26.299Z,5.73
2018-01-08T03:20:55.096Z,5.67
2018-01-08T03:23:23.026Z,6.57
2018-01-08T03:25:51.490Z,5.23
2018-01-08T03:28:19.143Z,6.07
2018-01-08T03:30:46.938Z,5.50
2018-01-08T03:33:15.346Z,6.10
2018-01-08T03:35:43.321Z,6.40
2018-01-08T03:38:11.889Z,5.80
2018-01-08T03:40:39.604Z,6.53
2018-01-08T03:43:07.432Z,5.40
2018-01-08T03:45:35.069Z,5.73
2018-01-08T03:48:03.583Z,6.07
2018-01-08T03:50:31.424Z,5.73
2018-01-08T03:53:00.344Z,6.20
2018-01-08T03:55:28.831Z,6.23
2018-01-08T03:57:56.516Z,6.60
2018-01-08T04:00:24.604Z,6.37
2018-01-08T04:02:52.347Z,6.00
2018-01-08T04:05:20.406Z,6.77
2018-01-08T04:07:49.089Z,6.63
2018-01-08T04:10:17.993Z,5.43
2018-01-08T04:12:46.088Z,6.10
2018-01-08T04:15:13.763Z,7.40
2018-01-08T04:17:41.441Z,6.60
2018-01-08T04:20:09.170Z,5.73
2018-01-08T04:22:36.835Z,6.27
2018-01-08T04:25:05.615Z,6.90
2018-01-08T04:27:34.167Z,6.07
2018-01-08T04:30:02.651Z,6.63
2018-01-08T04:32:31.074Z,6.20
2018-01-08T04:34:59.236Z,6.33
2018-01-08T04:37:27.733Z,6.40
2018-01-08T04:39:55.445Z,6.10
2018-01-08T04:42:23.880Z,7.50
2018-01-08T04:44:51.854Z,6.40
2018-01-08T04:47:20.023Z,6.67
2018-01-08T04:49:47.692Z,7.60
2018-01-08T04:52:15.340Z,6.63
2018-01-08T04:54:43.040Z,6.43
2018-01-08T04:57:11.079Z,7.00
2018-01-08T04:59:39.873Z,6.30
2018-01-08T05:02:07.533Z,6.97
2018-01-08T05:04:35.599Z,6.40
2018-01-08T05:07:04.407Z,6.70
2018-01-08T05:09:32.897Z,7.17
2018-01-08T05:12:00.624Z,6.93
2018-01-08T05:14:29.029Z,7.00
2018-01-08T05:16:56.734Z,6.50
2018-01-08T05:19:24.393Z,7.43
2018-01-08T05:21:52.096Z,6.60
2018-01-08T05:24:20.513Z,6.67
2018-01-08T05:26:48.148Z,7.20
2018-01-08T05:29:16.762Z,6.90
2018-01-08T05:31:44.467Z,6.77
2018-01-08T05:34:12.130Z,6.60
2018-01-08T05:36:39.754Z,7.13
2018-01-08T05:39:07.560Z,5.93
2018-01-08T05:41:35.280Z,7.10
2018-01-08T05:44:03.244Z,5.67
2018-01-08T05:46:31.864Z,6.40
2018-01-08T05:48:59.537Z,6.57
2018-01-08T05:51:27.207Z,6.30
2018-01-08T05:53:54.854Z,5.67
2018-01-08T05:56:22.890Z,6.00
2018-01-08T05:58:51.370Z,5.80
2018-01-08T06:01:19.450Z,5.83
2018-01-08T06:03:47.140Z,5.40
2018-01-08T06:06:14.760Z,6.20
2018-01-08T06:08:43.206Z,6.17
2018-01-08T06:11:11.134Z,5.50
2018-01-08T06:13:39.656Z,5.67
2018-01-08T06:16:07.382Z,5.90
2018-01-08T06:18:35.235Z,6.37
2018-01-08T06:21:03.212Z,5.40
2018-01-08T06:23:31.005Z,5.87
2018-01-08T06:25:58.713Z,5.73
2018-01-08T06:28:27.438Z,5.93
2018-01-08T06:30:55.923Z,6.10
2018-01-08T06:33:23.539Z,5.77
2018-01-08T06:35:51.550Z,7.00
2018-01-08T06:38:19.202Z,5.23
2018-01-08T06:40:47.684Z,5.83
2018-01-08T06:43:16.138Z,6.17
2018-01-08T06:45:44.055Z,5.53
2018-01-08T06:48:12.124Z,4.90
2018-01-08T06:50:39.761Z,5.50
2018-01-08T06:53:08.140Z,4.90
2018-01-08T06:55:35.805Z,4.80
2018-01-08T06:58:04.264Z,5.70
2018-01-08T07:00:32.388Z,5.63
2018-01-08T07:03:01.183Z,6.37
2018-01-08T07:05:28.884Z,5.60
2018-01-08T07:07:56.916Z,5.60
2018-01-08T07:10:25.396Z,6.47
2018-01-08T07:12:53.095Z,5.40
2018-01-08T07:15:20.772Z,5.33
2018-01-08T07:17:48.802Z,5.30
2018-01-08T07:20:16.669Z,5.77
2018-01-08T07:22:44.742Z,4.90
2018-01-08T07:25:13.326Z,4.80
2018-01-08T07:27:40.973Z,5.67
2018-01-08T07:30:09.406Z,4.80
2018-01-08T07:32:37.255Z,5.20
2018-01-08T07:35:05.216Z,4.77
2018-01-08T07:37:32.891Z,4.97
2018-01-08T07:40:00.951Z,5.03
2018-01-08T07:42:28.826Z,3.87
2018-01-08T07:44:56.456Z,4.70
2018-01-08T07:47:24.923Z,3.87
2018-01-08T07:49:52.639Z,4.40
2018-01-08T07:52:20.376Z,4.43
2018-01-08T07:54:49.101Z,3.90
2018-01-08T07:57:16.722Z,4.10
2018-01-08T07:59:45.157Z,4.63
2018-01-08T08:02:12.793Z,5.10
2018-01-08T08:04:40.596Z,4.70
2018-01-08T08:07:08.287Z,4.13
2018-01-08T08:09:36.194Z,4.50
2018-01-08T08:12:04.889Z,4.10
2018-01-08T08:14:33.058Z,4.17
2018-01-08T08:17:01.523Z,4.30
2018-01-08T08:19:30.330Z,4.07
2018-01-08T08:21:58.317Z,3.90
2018-01-08T08:24:26.277Z,4.50
2018-01-08T08:26:54.858Z,4.30
2018-01-08T08:29:23.348Z,4.40
2018-01-08T08:31:51.001Z,4.43
2018-01-08T08:34:18.814Z,4.00
2018-01-08T08:36:46.525Z,4.70
2018-01-08T08:39:14.935Z,4.53
2018-01-08T08:41:42.564Z,4.00
2018-01-08T08:44:11.475Z,4.57
2018-01-08T08:46:39.167Z,4.53
2018-01-08T08:49:07.217Z,4.47
2018-01-08T08:51:34.888Z,5.07
2018-01-08T08:54:02.587Z,5.33
2018-01-08T08:56:30.254Z,4.03
2018-01-08T08:58:57.981Z,4.20
2018-01-08T09:01:25.682Z,4.60
2018-01-08T09:03:53.410Z,5.10
2018-01-08T09:06:21.052Z,4.93
2018-01-08T09:08:49.861Z,4.20
2018-01-08T09:11:18.754Z,4.97
2018-01-08T09:13:46.617Z,4.27
2018-01-08T09:16:14.790Z,4.27
2018-01-08T09:18:43.258Z,4.27
2018-01-08T09:21:11.798Z,4.23
2018-01-08T09:23:39.664Z,5.03
2018-01-08T09:26:07.292Z,4.70
2018-01-08T09:28:35.047Z,4.60
2018-01-08T09:31:02.898Z,3.97
2018-01-08T09:33:31.936Z,4.20
2018-01-08T09:35:59.785Z,4.37
2018-01-08T09:38:27.489Z,4.47
2018-01-08T09:40:55.526Z,5.60
2018-01-08T09:43:23.498Z,3.43
2018-01-08T09:45:51.096Z,4.40
2018-01-08T09:48:19.127Z,4.80
2018-01-08T09:50:47.635Z,5.07
2018-01-08T09:53:15.259Z,4.50
2018-01-08T09:55:43.664Z,6.00
2018-01-08T09:58:11.291Z,5.27
2018-01-08T10:00:39.720Z,5.10
2018-01-08T10:03:07.436Z,4.70
2018-01-08T10:05:35.890Z,4.50
2018-01-08T10:08:04.020Z,3.77
2018-01-08T10:10:31.748Z,3.90
2018-01-08T10:12:59.600Z,4.77
2018-01-08T10:15:27.274Z,5.33
2018-01-08T10:17:55.293Z,4.10
2018-01-08T10:20:23.770Z,4.60
2018-01-08T10:22:52.167Z,4.13
2018-01-08T10:25:19.848Z,5.50
2018-01-08T10:27:47.573Z,4.63
2018-01-08T10:30:16.374Z,3.60
2018-01-08T10:32:44.879Z,4.77
2018-01-08T10:35:12.631Z,4.07
2018-01-08T10:37:40.307Z,4.67
2018-01-08T10:40:07.948Z,3.67
2018-01-08T10:42:35.652Z,4.90
2018-01-08T10:45:03.309Z,13.97
2018-01-08T10:47:31.048Z,16.30
2018-01-08T10:49:59.022Z,14.40
2018-01-08T10:52:26.671Z,10.80
2018-01-08T10:54:55.382Z,7.60
2018-01-08T10:57:23.156Z,9.90
2018-01-08T10:59:50.819Z,7.70
2018-01-08T11:02:18.506Z,6.63
2018-01-08T11:04:46.148Z,5.07
2018-01-08T11:07:13.820Z,5.13
2018-01-08T11:09:41.634Z,3.97
2018-01-08T11:12:10.114Z,3.00
2018-01-08T11:14:38.573Z,2.50
2018-01-08T11:17:06.267Z,2.77
2018-01-08T11:19:34.989Z,2.30
2018-01-08T11:22:03.592Z,2.57
2018-01-08T11:24:32.463Z,3.10
2018-01-08T11:27:00.960Z,2.97
2018-01-08T11:29:28.628Z,2.30
2018-01-08T11:31:56.589Z,2.90
2018-01-08T11:34:24.297Z,2.50
2018-01-08T11:36:52.004Z,2.43
2018-01-08T11:39:19.704Z,2.70
2018-01-08T11:41:47.419Z,2.60
2018-01-08T11:44:15.096Z,3.00
2018-01-08T11:46:43.666Z,2.77
2018-01-08T11:49:11.460Z,3.63
2018-01-08T11:51:39.207Z,2.43
2018-01-08T11:54:07.226Z,3.60
2018-01-08T11:56:35.362Z,2.80
2018-01-08T11:59:03.851Z,2.83
2018-01-08T12:01:31.940Z,2.73
2018-01-08T12:03:59.581Z,2.83
2018-01-08T12:06:27.459Z,2.63
2018-01-08T12:08:55.173Z,2.93
2018-01-08T12:11:22.866Z,3.03
2018-01-08T12:13:51.294Z,2.40
2018-01-08T12:16:19.006Z,2.73
2018-01-08T12:18:47.498Z,2.87
2018-01-08T12:21:15.185Z,2.60
2018-01-08T12:23:42.984Z,2.90
2018-01-08T12:26:10.901Z,3.00
2018-01-08T12:28:38.561Z,3.00
2018-01-08T12:31:07.100Z,2.80
2018-01-08T12:33:34.746Z,3.00
2018-01-08T12:36:02.802Z,2.60
2018-01-08T12:38:30.444Z,3.67
2018-01-08T12:40:58.846Z,3.00
2018-01-08T12:43:26.610Z,2.73
2018-01-08T12:45:54.787Z,2.97
2018-01-08T12:48:22.570Z,2.87
2018-01-08T12:50:50.268Z,3.07
2018-01-08T12:53:17.980Z,2.70
2018-01-08T12:55:45.862Z,3.37
2018-01-08T12:58:13.605Z,3.00
2018-01-08T13:00:41.588Z,3.37
2018-01-08T13:03:09.363Z,3.27
2018-01-08T13:05:37.043Z,3.50
2018-01-08T13:08:04.724Z,3.03
2018-01-08T13:10:32.503Z,2.97
2018-01-08T13:13:00.316Z,3.63
2018-01-08T13:15:28.141Z,3.60
2018-01-08T13:17:55.903Z,3.63
2018-01-08T13:20:23.698Z,3.23
2018-01-08T13:22:52.517Z,3.20
2018-01-08T13:25:21.081Z,3.23
2018-01-08T13:27:49.506Z,3.43
2018-01-08T13:30:17.164Z,3.50
2018-01-08T13:32:44.914Z,3.43
2018-01-08T13:35:12.979Z,3.17
2018-01-08T13:37:41.774Z,3.33
2018-01-08T13:40:10.264Z,3.53
2018-01-08T13:42:37.928Z,3.90
2018-01-08T13:45:05.570Z,3.90
2018-01-08T13:47:33.281Z,3.50
2018-01-08T13:50:00.969Z,2.83
2018-01-08T13:52:28.622Z,3.50
2018-01-08T13:54:56.340Z,3.63
2018-01-08T13:57:24.076Z,3.53
2018-01-08T13:59:52.571Z,3.57
2018-01-08T14:02:21.096Z,4.70
2018-01-08T14:04:48.784Z,3.60
2018-01-08T14:07:16.507Z,3.90
2018-01-08T14:09:44.571Z,4.30
2018-01-08T14:12:12.559Z,3.60
2018-01-08T14:14:40.286Z,3.80
2018-01-08T14:17:08.696Z,6.87
2018-01-08T14:19:36.664Z,6.10
2018-01-08T14:22:04.361Z,4.97
2018-01-08T14:24:32.397Z,5.40
2018-01-08T14:27:00.947Z,6.37
2018-01-08T14:29:29.345Z,5.70
2018-01-08T14:31:57.856Z,5.93
2018-01-08T14:34:25.613Z,5.97
2018-01-08T14:36:53.263Z,5.60
2018-01-08T14:39:21.674Z,5.00
2018-01-08T14:41:49.585Z,5.50
2018-01-08T14:44:17.739Z,5.33
2018-01-08T14:46:45.496Z,5.60
2018-01-08T14:49:13.190Z,5.90
2018-01-08T14:51:42.052Z,5.20
2018-01-08T14:54:09.709Z,5.10
2018-01-08T14:56:38.477Z,4.73
2018-01-08T14:59:07.007Z,4.87
2018-01-08T15:01:35.956Z,6.10
2018-01-08T15:04:03.597Z,4.30
2018-01-08T15:06:32.035Z,4.53
2018-01-08T15:08:59.711Z,4.67
2018-01-08T15:11:27.562Z,4.47
2018-01-08T15:13:55.206Z,5.30
2018-01-08T15:16:22.915Z,5.17
2018-01-08T15:18:50.575Z,4.77
2018-01-08T15:21:18.239Z,4.80
2018-01-08T15:23:45.897Z,4.43
2018-01-08T15:26:13.865Z,4.73
2018-01-08T15:28:41.587Z,4.90
2018-01-08T15:31:09.561Z,5.23
2018-01-08T15:33:37.438Z,5.10
2018-01-08T15:36:06.425Z,5.13
2018-01-08T15:38:34.931Z,5.90
2018-01-08T15:41:02.984Z,6.13
2018-01-08T15:43:31.554Z,5.27
2018-01-08T15:46:00.155Z,4.90
2018-01-08T15:48:27.916Z,5.27
2018-01-08T15:50:55.564Z,5.90
2018-01-08T15:53:24.002Z,5.13
2018-01-08T15:55:51.882Z,5.20
2018-01-08T15:58:19.630Z,5.80
2018-01-08T16:00:47.307Z,5.07
2018-01-08T16:03:14.955Z,5.40
2018-01-08T16:05:42.643Z,4.80
2018-01-08T16:08:10.273Z,5.50
2018-01-08T16:10:38.111Z,4.30
2018-01-08T16:13:06.490Z,4.73
2018-01-08T16:15:35.056Z,5.87
2018-01-08T16:18:03.523Z,5.47
2018-01-08T16:20:31.437Z,5.37
2018-01-08T16:22:59.999Z,5.00
2018-01-08T16:25:28.472Z,4.87
2018-01-08T16:27:56.919Z,4.97
2018-01-08T16:30:24.544Z,4.90
2018-01-08T16:32:53.111Z,5.50
2018-01-08T16:35:21.587Z,6.00
2018-01-08T16:37:49.232Z,5.23
2018-01-08T16:40:16.891Z,4.50
2018-01-08T16:42:44.925Z,5.63
2018-01-08T16:45:13.508Z,5.30
2018-01-08T16:47:41.151Z,5.90
2018-01-08T16:50:09.580Z,5.53
2018-01-08T16:52:37.631Z,4.77
2018-01-08T16:55:06.235Z,6.07
2018-01-08T16:57:33.908Z,5.87
2018-01-08T17:00:01.573Z,6.93
2018-01-08T17:02:29.338Z,6.57
2018-01-08T17:04:56.969Z,4.60
2018-01-08T17:07:25.041Z,5.00
2018-01-08T17:09:53.564Z,5.63
2018-01-08T17:12:21.230Z,5.40
2018-01-08T17:14:48.898Z,5.50
2018-01-08T17:17:16.664Z,4.93
2018-01-08T17:19:44.793Z,6.10
2018-01-08T17:22:12.587Z,6.60
2018-01-08T17:24:40.640Z,5.07
2018-01-08T17:27:08.439Z,5.80
2018-01-08T17:29:36.477Z,6.60
2018-01-08T17:32:05.370Z,6.50
2018-01-08T17:34:34.055Z,5.20
2018-01-08T17:37:02.950Z,5.10
2018-01-08T17:39:31.944Z,4.83
2018-01-08T17:42:00.840Z,5.77
2018-01-08T17:44:28.534Z,5.00
2018-01-08T17:46:56.241Z,4.70
2018-01-08T17:49:24.731Z,5.53
2018-01-08T17:51:52.732Z,4.90
2018-01-08T17:54:20.461Z,5.30
2018-01-08T17:56:49.011Z,5.10
2018-01-08T17:59:17.038Z,5.60
2018-01-08T18:01:44.693Z,6.07
2018-01-08T18:04:13.193Z,5.83
2018-01-08T18:06:41.260Z,4.80
2018-01-08T18:09:09.337Z,4.93
2018-01-08T18:11:38.226Z,5.00
2018-01-08T18:14:06.003Z,4.83
2018-01-08T18:16:33.687Z,5.30
2018-01-08T18:19:01.345Z,5.50
2018-01-08T18:21:29.013Z,4.93
2018-01-08T18:23:57.068Z,4.90
2018-01-08T18:26:25.547Z,5.30
2018-01-08T18:28:53.230Z,5.03
2018-01-08T18:31:20.886Z,4.80
2018-01-08T18:33:48.566Z,4.40
2018-01-08T18:36:16.303Z,4.30
2018-01-08T18:38:45.088Z,5.20
2018-01-08T18:41:12.823Z,5.03
2018-01-08T18:43:41.642Z,5.17
2018-01-08T18:46:09.321Z,4.87
2018-01-08T18:48:37.289Z,4.53
2018-01-08T18:51:05.834Z,5.27
2018-01-08T18:53:33.605Z,4.27
2018-01-08T18:56:02.028Z,4.60
2018-01-08T18:58:29.686Z,5.10
2018-01-08T19:00:57.643Z,4.70
2018-01-08T19:03:26.224Z,4.50
2018-01-08T19:05:53.862Z,5.03
2018-01-08T19:08:22.282Z,4.13
2018-01-08T19:10:50.245Z,4.67
2018-01-08T19:13:19.022Z,4.93
2018-01-08T19:15:47.473Z,4.60
2018-01-08T19:18:15.278Z,4.50
2018-01-08T19:20:42.933Z,3.90
2018-01-08T19:23:11.420Z,4.87
2018-01-08T19:25:39.919Z,3.93
2018-01-08T19:28:07.664Z,4.67
2018-01-08T19:30:35.329Z,4.63
2018-01-08T19:33:03.825Z,4.00
2018-01-08T19:35:31.914Z,4.30
2018-01-08T19:38:00.478Z,4.27
2018-01-08T19:40:28.161Z,4.93
2018-01-08T19:42:56.123Z,4.70
2018-01-08T19:45:23.801Z,4.20
2018-01-08T19:47:51.536Z,3.80
2018-01-08T19:50:19.227Z,4.70
2018-01-08T19:52:47.192Z,4.37
2018-01-08T19:55:15.712Z,4.43
2018-01-08T19:57:43.455Z,4.10
2018-01-08T20:00:11.269Z,4.43
2018-01-08T20:02:39.175Z,4.47
2018-01-08T20:05:07.657Z,4.37
2018-01-08T20:07:35.375Z,3.80
2018-01-08T20:10:03.072Z,5.10
2018-01-08T20:12:30.854Z,4.27
2018-01-08T20:14:58.723Z,4.10
2018-01-08T20:17:27.620Z,4.87
2018-01-08T20:19:55.365Z,3.50
2018-01-08T20:22:23.351Z,6.13
2018-01-08T20:24:50.985Z,5.67
2018-01-08T20:27:18.883Z,5.30
2018-01-08T20:29:46.653Z,5.53
2018-01-08T20:32:14.430Z,4.33
2018-01-08T20:34:43.329Z,5.50
2018-01-08T20:37:19.488Z,5.10
2018-01-08T20:39:47.140Z,5.27
2018-01-08T20:42:15.321Z,5.03
2018-01-08T20:44:43.877Z,5.70
2018-01-08T20:47:12.594Z,5.60
2018-01-08T20:49:41.189Z,5.53
2018-01-08T20:52:09.353Z,5.77
2018-01-08T20:54:38.152Z,4.10
2018-01-08T20:57:06.723Z,6.17
2018-01-08T20:59:34.599Z,6.13
2018-01-08T21:02:03.254Z,5.97
2018-01-08T21:04:31.887Z,5.00
2018-01-08T21:06:59.859Z,5.17
2018-01-08T21:09:28.371Z,5.00
2018-01-08T21:11:56.516Z,5.83
2018-01-08T21:14:25.394Z,6.10
2018-01-08T21:16:53.463Z,6.97
2018-01-08T21:19:22.349Z,4.60
2018-01-08T21:21:50.927Z,5.57
2018-01-08T21:24:18.652Z,5.33
2018-01-08T21:26:46.548Z,5.20
2018-01-08T21:29:14.559Z,4.40
2018-01-08T21:31:43.021Z,5.40
2018-01-08T21:34:10.799Z,5.10
2018-01-08T21:36:39.283Z,4.77
2018-01-08T21:39:07.030Z,4.90
2018-01-08T21:41:35.025Z,5.00
2018-01-08T21:44:03.914Z,4.57
2018-01-08T21:46:32.398Z,5.57
2018-01-08T21:49:00.054Z,6.10
2018-01-08T21:51:28.060Z,5.10
2018-01-08T21:53:55.769Z,5.17
2018-01-08T21:56:24.268Z,5.57
2018-01-08T21:58:51.972Z,4.83
2018-01-08T22:01:19.810Z,5.47
2018-01-08T22:03:47.793Z,5.87
2018-01-08T22:06:16.289Z,5.73
2018-01-08T22:08:44.130Z,5.37
2018-01-08T22:11:12.934Z,5.30
2018-01-08T22:13:40.659Z,5.13
2018-01-08T22:16:09.246Z,5.70
2018-01-08T22:18:37.733Z,5.23
2018-01-08T22:21:06.184Z,5.00
2018-01-08T22:23:34.140Z,5.60
2018-01-08T22:26:03.114Z,4.30
2018-01-08T22:28:30.795Z,4.73
2018-01-08T22:30:58.459Z,4.77
2018-01-08T22:33:26.304Z,4.80
2018-01-08T22:35:54.123Z,4.47
2018-01-08T22:38:21.797Z,4.90
2018-01-08T22:40:49.834Z,5.30
2018-01-08T22:43:17.493Z,4.90
2018-01-08T22:45:46.401Z,4.20
2018-01-08T22:48:14.158Z,5.10
2018-01-08T22:50:41.812Z,4.67
2018-01-08T22:53:09.558Z,6.07
2018-01-08T22:55:37.393Z,5.60
2018-01-08T22:58:05.818Z,5.20
2018-01-08T23:00:33.538Z,5.53
2018-01-08T23:03:01.952Z,4.60
2018-01-08T23:05:29.701Z,5.47
2018-01-08T23:07:57.509Z,4.83
2018-01-08T23:10:25.388Z,5.60
2018-01-08T23:12:53.527Z,6.30
2018-01-08T23:15:21.501Z,4.43
2018-01-08T23:17:49.280Z,4.93
2018-01-08T23:20:17.270Z,5.80
2018-01-08T23:22:45.409Z,5.13
2018-01-08T23:25:13.918Z,5.37
2018-01-08T23:27:41.774Z,4.50
2018-01-08T23:30:10.764Z,5.03
2018-01-08T23:32:39.236Z,4.73
2018-01-08T23:35:06.870Z,4.77
2018-01-08T23:37:34.520Z,5.10
2018-01-08T23:40:02.172Z,5.50
2018-01-08T23:42:29.922Z,5.57
2018-01-08T23:44:57.873Z,4.90
2018-01-08T23:47:26.650Z,5.50
2018-01-08T23:49:55.171Z,5.60
2018-01-08T23:52:22.966Z,4.77
2018-01-08T23:54:50.621Z,4.70
2018-01-08T23:57:18.351Z,5.67
2018-01-08T23:59:46.038Z,5.27
